sensor_id;sensor_type;location;lat;lon;timestamp;P1;durP1;ratioP1;P2;durP2;ratioP2
68647;SDS011;55632;51.962;16.116;2022-08-21T00:00:01;14.98;;;12.73;;
68647;SDS011;55632;51.962;16.116;2022-08-21T00:05:12;18.75;;;13.75;;
68647;SDS011;55632;51.962;16.116;2022-08-21T00:10:13;16.48;;;13.05;;
68647;SDS011;55632;51.962;16.116;2022-08-21T00:15:18;12.85;;;11.52;;
68647;SDS011;55632;51.962;16.116;2022-08-21T00:20:23;13.02;;;11.45;;
68647;SDS011;55632;51.962;16.116;2022-08-21T00:25:24;12.95;;;11.65;;
68647;SDS011;55632;51.962;16.116;2022-08-21T00:30:30;13.63;;;12.23;;
68647;SDS011;55632;51.962;16.116;2022-08-21T00:35:40;15.93;;;12.25;;
68647;SDS011;55632;51.962;16.116;2022-08-21T00:40:50;18.58;;;13.13;;
68647;SDS011;55632;51.962;16.116;2022-08-21T00:46:02;15.07;;;13.07;;
68647;SDS011;55632;51.962;16.116;2022-08-21T00:56:16;13.55;;;11.55;;
68647;SDS011;55632;51.962;16.116;2022-08-21T01:01:24;13.48;;;11.52;;
68647;SDS011;55632;51.962;16.116;2022-08-21T01:06:31;17.65;;;12.57;;
68647;SDS011;55632;51.962;16.116;2022-08-21T01:11:40;15.23;;;12.32;;
68647;SDS011;55632;51.962;16.116;2022-08-21T01:16:43;13.50;;;11.70;;
68647;SDS011;55632;51.962;16.116;2022-08-21T01:21:49;13.25;;;11.13;;
68647;SDS011;55632;51.962;16.116;2022-08-21T01:26:50;12.95;;;10.80;;
68647;SDS011;55632;51.962;16.116;2022-08-21T01:31:57;12.70;;;10.32;;
68647;SDS011;55632;51.962;16.116;2022-08-21T01:37:15;13.13;;;10.95;;
68647;SDS011;55632;51.962;16.116;2022-08-21T01:42:19;10.80;;;9.63;;
68647;SDS011;55632;51.962;16.116;2022-08-21T01:47:23;11.15;;;9.23;;
68647;SDS011;55632;51.962;16.116;2022-08-21T01:52:24;11.25;;;10.10;;
68647;SDS011;55632;51.962;16.116;2022-08-21T01:57:26;12.38;;;11.07;;
68647;SDS011;55632;51.962;16.116;2022-08-21T02:02:27;9.68;;;8.68;;
68647;SDS011;55632;51.962;16.116;2022-08-21T02:07:37;6.15;;;5.65;;
68647;SDS011;55632;51.962;16.116;2022-08-21T02:12:39;6.30;;;5.60;;
68647;SDS011;55632;51.962;16.116;2022-08-21T02:17:41;5.72;;;5.22;;
68647;SDS011;55632;51.962;16.116;2022-08-21T02:22:56;11.52;;;5.78;;
68647;SDS011;55632;51.962;16.116;2022-08-21T02:27:58;8.90;;;7.78;;
68647;SDS011;55632;51.962;16.116;2022-08-21T02:33:00;8.88;;;7.97;;
68647;SDS011;55632;51.962;16.116;2022-08-21T02:38:03;9.13;;;8.30;;
68647;SDS011;55632;51.962;16.116;2022-08-21T02:43:09;10.43;;;8.68;;
68647;SDS011;55632;51.962;16.116;2022-08-21T02:48:18;11.20;;;8.75;;
68647;SDS011;55632;51.962;16.116;2022-08-21T02:53:22;10.20;;;9.27;;
68647;SDS011;55632;51.962;16.116;2022-08-21T02:58:25;8.77;;;7.88;;
68647;SDS011;55632;51.962;16.116;2022-08-21T03:03:30;10.38;;;8.93;;
68647;SDS011;55632;51.962;16.116;2022-08-21T03:08:31;11.93;;;9.98;;
68647;SDS011;55632;51.962;16.116;2022-08-21T03:13:34;12.48;;;9.90;;
68647;SDS011;55632;51.962;16.116;2022-08-21T03:18:36;14.48;;;11.95;;
68647;SDS011;55632;51.962;16.116;2022-08-21T03:23:37;13.30;;;11.65;;
68647;SDS011;55632;51.962;16.116;2022-08-21T03:28:39;13.73;;;12.30;;
68647;SDS011;55632;51.962;16.116;2022-08-21T03:33:44;16.23;;;12.63;;
68647;SDS011;55632;51.962;16.116;2022-08-21T03:38:48;14.02;;;10.65;;
68647;SDS011;55632;51.962;16.116;2022-08-21T03:43:52;14.80;;;11.10;;
68647;SDS011;55632;51.962;16.116;2022-08-21T03:48:55;11.25;;;9.80;;
68647;SDS011;55632;51.962;16.116;2022-08-21T03:53:58;11.30;;;8.65;;
68647;SDS011;55632;51.962;16.116;2022-08-21T03:59:00;10.45;;;8.48;;
68647;SDS011;55632;51.962;16.116;2022-08-21T04:04:05;7.97;;;6.53;;
68647;SDS011;55632;51.962;16.116;2022-08-21T04:09:09;9.48;;;7.05;;
68647;SDS011;55632;51.962;16.116;2022-08-21T04:14:10;10.07;;;6.53;;
68647;SDS011;55632;51.962;16.116;2022-08-21T04:19:12;11.10;;;6.07;;
68647;SDS011;55632;51.962;16.116;2022-08-21T04:24:16;11.50;;;6.43;;
68647;SDS011;55632;51.962;16.116;2022-08-21T04:29:17;7.57;;;5.30;;
68647;SDS011;55632;51.962;16.116;2022-08-21T04:34:20;8.45;;;5.90;;
68647;SDS011;55632;51.962;16.116;2022-08-21T04:39:21;9.27;;;5.18;;
68647;SDS011;55632;51.962;16.116;2022-08-21T04:44:28;9.00;;;4.97;;
68647;SDS011;55632;51.962;16.116;2022-08-21T04:49:29;8.40;;;4.55;;
68647;SDS011;55632;51.962;16.116;2022-08-21T04:54:33;7.97;;;4.43;;
68647;SDS011;55632;51.962;16.116;2022-08-21T04:59:35;6.85;;;4.22;;
68647;SDS011;55632;51.962;16.116;2022-08-21T05:04:48;8.35;;;4.72;;
68647;SDS011;55632;51.962;16.116;2022-08-21T05:09:52;7.45;;;3.67;;
68647;SDS011;55632;51.962;16.116;2022-08-21T05:14:56;5.80;;;3.40;;
68647;SDS011;55632;51.962;16.116;2022-08-21T05:19:57;6.97;;;3.63;;
68647;SDS011;55632;51.962;16.116;2022-08-21T05:24:58;6.63;;;3.80;;
68647;SDS011;55632;51.962;16.116;2022-08-21T05:29:59;6.75;;;3.97;;
68647;SDS011;55632;51.962;16.116;2022-08-21T05:35:00;6.85;;;3.35;;
68647;SDS011;55632;51.962;16.116;2022-08-21T05:40:01;6.32;;;3.58;;
68647;SDS011;55632;51.962;16.116;2022-08-21T05:45:03;5.35;;;3.13;;
68647;SDS011;55632;51.962;16.116;2022-08-21T05:50:05;10.68;;;3.53;;
68647;SDS011;55632;51.962;16.116;2022-08-21T05:55:06;9.32;;;3.58;;
68647;SDS011;55632;51.962;16.116;2022-08-21T06:00:08;7.03;;;3.72;;
68647;SDS011;55632;51.962;16.116;2022-08-21T06:05:18;8.18;;;3.75;;
68647;SDS011;55632;51.962;16.116;2022-08-21T06:10:19;7.63;;;3.80;;
68647;SDS011;55632;51.962;16.116;2022-08-21T06:15:20;9.55;;;4.13;;
68647;SDS011;55632;51.962;16.116;2022-08-21T06:20:21;6.80;;;3.63;;
68647;SDS011;55632;51.962;16.116;2022-08-21T06:25:22;5.30;;;3.08;;
68647;SDS011;55632;51.962;16.116;2022-08-21T06:30:24;5.32;;;3.47;;
68647;SDS011;55632;51.962;16.116;2022-08-21T06:35:29;4.80;;;3.42;;
68647;SDS011;55632;51.962;16.116;2022-08-21T06:40:33;9.77;;;4.65;;
68647;SDS011;55632;51.962;16.116;2022-08-21T06:45:37;10.93;;;3.60;;
68647;SDS011;55632;51.962;16.116;2022-08-21T06:50:38;9.60;;;3.33;;
68647;SDS011;55632;51.962;16.116;2022-08-21T06:55:40;6.70;;;3.40;;
68647;SDS011;55632;51.962;16.116;2022-08-21T07:00:45;6.70;;;3.40;;
68647;SDS011;55632;51.962;16.116;2022-08-21T07:05:51;6.85;;;2.95;;
68647;SDS011;55632;51.962;16.116;2022-08-21T07:10:54;5.28;;;2.80;;
68647;SDS011;55632;51.962;16.116;2022-08-21T07:15:57;8.10;;;3.65;;
68647;SDS011;55632;51.962;16.116;2022-08-21T07:21:07;5.80;;;3.00;;
68647;SDS011;55632;51.962;16.116;2022-08-21T07:26:10;7.22;;;3.47;;
68647;SDS011;55632;51.962;16.116;2022-08-21T07:31:13;5.53;;;2.50;;
68647;SDS011;55632;51.962;16.116;2022-08-21T07:36:17;4.13;;;2.70;;
68647;SDS011;55632;51.962;16.116;2022-08-21T07:41:21;6.80;;;2.88;;
68647;SDS011;55632;51.962;16.116;2022-08-21T07:46:27;8.18;;;3.28;;
68647;SDS011;55632;51.962;16.116;2022-08-21T07:51:28;4.95;;;3.03;;
68647;SDS011;55632;51.962;16.116;2022-08-21T07:56:30;9.20;;;4.28;;
68647;SDS011;55632;51.962;16.116;2022-08-21T08:01:32;8.05;;;5.30;;
68647;SDS011;55632;51.962;16.116;2022-08-21T08:06:33;7.22;;;4.82;;
68647;SDS011;55632;51.962;16.116;2022-08-21T08:11:36;10.20;;;4.50;;
68647;SDS011;55632;51.962;16.116;2022-08-21T08:16:44;11.30;;;4.47;;
68647;SDS011;55632;51.962;16.116;2022-08-21T08:21:48;9.82;;;4.80;;
68647;SDS011;55632;51.962;16.116;2022-08-21T08:26:49;7.63;;;3.97;;
68647;SDS011;55632;51.962;16.116;2022-08-21T08:31:50;8.40;;;3.85;;
68647;SDS011;55632;51.962;16.116;2022-08-21T08:36:51;9.52;;;4.22;;
68647;SDS011;55632;51.962;16.116;2022-08-21T08:41:56;10.15;;;5.22;;
68647;SDS011;55632;51.962;16.116;2022-08-21T08:47:10;7.35;;;3.75;;
68647;SDS011;55632;51.962;16.116;2022-08-21T08:52:28;8.43;;;5.13;;
68647;SDS011;55632;51.962;16.116;2022-08-21T08:57:31;14.27;;;9.07;;
68647;SDS011;55632;51.962;16.116;2022-08-21T09:02:34;8.30;;;4.53;;
68647;SDS011;55632;51.962;16.116;2022-08-21T09:13:07;9.25;;;5.18;;
68647;SDS011;55632;51.962;16.116;2022-08-21T09:18:45;8.73;;;4.70;;
68647;SDS011;55632;51.962;16.116;2022-08-21T09:29:33;8.98;;;4.78;;
68647;SDS011;55632;51.962;16.116;2022-08-21T09:34:37;7.53;;;4.15;;
68647;SDS011;55632;51.962;16.116;2022-08-21T09:39:39;9.30;;;5.07;;
68647;SDS011;55632;51.962;16.116;2022-08-21T09:44:41;5.25;;;3.55;;
68647;SDS011;55632;51.962;16.116;2022-08-21T09:49:44;11.43;;;5.82;;
68647;SDS011;55632;51.962;16.116;2022-08-21T09:54:46;7.30;;;4.07;;
68647;SDS011;55632;51.962;16.116;2022-08-21T09:59:50;5.28;;;3.80;;
68647;SDS011;55632;51.962;16.116;2022-08-21T10:04:52;6.35;;;4.07;;
68647;SDS011;55632;51.962;16.116;2022-08-21T10:09:59;8.50;;;3.95;;
68647;SDS011;55632;51.962;16.116;2022-08-21T10:15:28;7.65;;;4.28;;
68647;SDS011;55632;51.962;16.116;2022-08-21T10:20:46;8.65;;;4.63;;
68647;SDS011;55632;51.962;16.116;2022-08-21T10:42:57;6.13;;;4.22;;
68647;SDS011;55632;51.962;16.116;2022-08-21T10:48:16;6.90;;;4.10;;
68647;SDS011;55632;51.962;16.116;2022-08-21T10:58:35;7.45;;;3.38;;
68647;SDS011;55632;51.962;16.116;2022-08-21T11:03:50;7.38;;;3.60;;
68647;SDS011;55632;51.962;16.116;2022-08-21T11:08:57;4.75;;;4.25;;
68647;SDS011;55632;51.962;16.116;2022-08-21T11:14:08;7.53;;;5.22;;
68647;SDS011;55632;51.962;16.116;2022-08-21T11:19:22;7.25;;;5.05;;
68647;SDS011;55632;51.962;16.116;2022-08-21T11:24:35;7.90;;;5.43;;
68647;SDS011;55632;51.962;16.116;2022-08-21T11:29:48;7.78;;;5.40;;
68647;SDS011;55632;51.962;16.116;2022-08-21T11:51:23;8.73;;;6.25;;
68647;SDS011;55632;51.962;16.116;2022-08-21T11:56:35;9.57;;;7.22;;
68647;SDS011;55632;51.962;16.116;2022-08-21T12:01:46;9.30;;;7.93;;
68647;SDS011;55632;51.962;16.116;2022-08-21T12:06:53;9.13;;;7.90;;
68647;SDS011;55632;51.962;16.116;2022-08-21T12:12:03;9.40;;;8.50;;
68647;SDS011;55632;51.962;16.116;2022-08-21T12:17:05;9.00;;;7.13;;
68647;SDS011;55632;51.962;16.116;2022-08-21T12:22:12;12.45;;;8.38;;
68647;SDS011;55632;51.962;16.116;2022-08-21T12:32:42;12.43;;;9.63;;
68647;SDS011;55632;51.962;16.116;2022-08-21T12:43:20;9.30;;;6.90;;
68647;SDS011;55632;51.962;16.116;2022-08-21T12:48:33;10.75;;;8.23;;
68647;SDS011;55632;51.962;16.116;2022-08-21T12:53:49;9.40;;;8.00;;
68647;SDS011;55632;51.962;16.116;2022-08-21T12:58:56;8.73;;;6.97;;
68647;SDS011;55632;51.962;16.116;2022-08-21T13:04:04;8.00;;;5.70;;
68647;SDS011;55632;51.962;16.116;2022-08-21T13:09:11;9.75;;;6.85;;
68647;SDS011;55632;51.962;16.116;2022-08-21T13:14:24;28.77;;;13.23;;
68647;SDS011;55632;51.962;16.116;2022-08-21T13:19:27;10.10;;;8.30;;
68647;SDS011;55632;51.962;16.116;2022-08-21T13:24:34;8.75;;;6.63;;
68647;SDS011;55632;51.962;16.116;2022-08-21T13:29:48;9.20;;;5.30;;
68647;SDS011;55632;51.962;16.116;2022-08-21T13:35:14;4.93;;;3.75;;
68647;SDS011;55632;51.962;16.116;2022-08-21T13:40:20;5.97;;;4.93;;
68647;SDS011;55632;51.962;16.116;2022-08-21T13:45:36;9.63;;;6.15;;
68647;SDS011;55632;51.962;16.116;2022-08-21T13:50:37;7.53;;;5.43;;
68647;SDS011;55632;51.962;16.116;2022-08-21T13:55:40;6.45;;;5.28;;
68647;SDS011;55632;51.962;16.116;2022-08-21T14:00:49;7.45;;;4.80;;
68647;SDS011;55632;51.962;16.116;2022-08-21T14:05:56;4.70;;;4.30;;
68647;SDS011;55632;51.962;16.116;2022-08-21T14:10:58;7.13;;;5.28;;
68647;SDS011;55632;51.962;16.116;2022-08-21T14:16:00;6.57;;;4.60;;
68647;SDS011;55632;51.962;16.116;2022-08-21T14:21:03;7.82;;;4.50;;
68647;SDS011;55632;51.962;16.116;2022-08-21T14:26:09;6.32;;;4.50;;
68647;SDS011;55632;51.962;16.116;2022-08-21T14:31:17;6.53;;;3.63;;
68647;SDS011;55632;51.962;16.116;2022-08-21T14:36:24;4.95;;;4.03;;
68647;SDS011;55632;51.962;16.116;2022-08-21T14:41:29;7.85;;;5.60;;
68647;SDS011;55632;51.962;16.116;2022-08-21T14:46:30;9.07;;;5.30;;
68647;SDS011;55632;51.962;16.116;2022-08-21T14:51:32;11.80;;;4.88;;
68647;SDS011;55632;51.962;16.116;2022-08-21T14:56:39;6.18;;;3.55;;
68647;SDS011;55632;51.962;16.116;2022-08-21T15:01:43;6.18;;;3.50;;
68647;SDS011;55632;51.962;16.116;2022-08-21T15:06:44;11.98;;;4.35;;
68647;SDS011;55632;51.962;16.116;2022-08-21T15:11:45;5.85;;;3.90;;
68647;SDS011;55632;51.962;16.116;2022-08-21T15:16:46;6.38;;;3.60;;
68647;SDS011;55632;51.962;16.116;2022-08-21T15:21:54;4.88;;;3.70;;
68647;SDS011;55632;51.962;16.116;2022-08-21T15:26:55;4.93;;;3.65;;
68647;SDS011;55632;51.962;16.116;2022-08-21T15:31:57;4.40;;;2.95;;
68647;SDS011;55632;51.962;16.116;2022-08-21T15:37:24;4.68;;;2.30;;
68647;SDS011;55632;51.962;16.116;2022-08-21T15:42:26;2.33;;;1.92;;
68647;SDS011;55632;51.962;16.116;2022-08-21T15:47:31;3.55;;;1.80;;
68647;SDS011;55632;51.962;16.116;2022-08-21T15:52:34;3.50;;;1.95;;
68647;SDS011;55632;51.962;16.116;2022-08-21T15:57:36;3.20;;;1.85;;
68647;SDS011;55632;51.962;16.116;2022-08-21T16:02:38;3.00;;;1.90;;
68647;SDS011;55632;51.962;16.116;2022-08-21T16:07:45;2.15;;;1.60;;
68647;SDS011;55632;51.962;16.116;2022-08-21T16:12:53;3.30;;;1.80;;
68647;SDS011;55632;51.962;16.116;2022-08-21T16:18:04;2.45;;;2.22;;
68647;SDS011;55632;51.962;16.116;2022-08-21T16:23:11;3.00;;;2.00;;
68647;SDS011;55632;51.962;16.116;2022-08-21T16:28:23;5.60;;;2.50;;
68647;SDS011;55632;51.962;16.116;2022-08-21T16:33:37;7.55;;;2.38;;
68647;SDS011;55632;51.962;16.116;2022-08-21T16:38:40;6.78;;;2.30;;
68647;SDS011;55632;51.962;16.116;2022-08-21T16:43:43;6.22;;;2.50;;
68647;SDS011;55632;51.962;16.116;2022-08-21T16:48:45;4.03;;;2.40;;
68647;SDS011;55632;51.962;16.116;2022-08-21T16:53:47;5.30;;;2.50;;
68647;SDS011;55632;51.962;16.116;2022-08-21T16:58:49;5.05;;;2.80;;
68647;SDS011;55632;51.962;16.116;2022-08-21T17:03:51;18.73;;;10.73;;
68647;SDS011;55632;51.962;16.116;2022-08-21T17:08:52;49.10;;;44.08;;
68647;SDS011;55632;51.962;16.116;2022-08-21T17:13:56;34.25;;;31.15;;
68647;SDS011;55632;51.962;16.116;2022-08-21T17:18:59;15.80;;;9.10;;
68647;SDS011;55632;51.962;16.116;2022-08-21T17:24:00;14.18;;;7.28;;
68647;SDS011;55632;51.962;16.116;2022-08-21T17:29:01;5.32;;;3.17;;
68647;SDS011;55632;51.962;16.116;2022-08-21T17:34:09;3.05;;;2.45;;
68647;SDS011;55632;51.962;16.116;2022-08-21T17:39:10;4.65;;;3.20;;
68647;SDS011;55632;51.962;16.116;2022-08-21T17:44:12;5.18;;;3.40;;
68647;SDS011;55632;51.962;16.116;2022-08-21T17:49:16;9.48;;;4.43;;
68647;SDS011;55632;51.962;16.116;2022-08-21T17:54:17;8.00;;;4.10;;
68647;SDS011;55632;51.962;16.116;2022-08-21T17:59:18;3.78;;;2.92;;
68647;SDS011;55632;51.962;16.116;2022-08-21T18:04:20;7.38;;;3.58;;
68647;SDS011;55632;51.962;16.116;2022-08-21T18:09:21;7.47;;;3.03;;
68647;SDS011;55632;51.962;16.116;2022-08-21T18:14:30;4.88;;;3.60;;
68647;SDS011;55632;51.962;16.116;2022-08-21T18:19:34;5.15;;;3.33;;
68647;SDS011;55632;51.962;16.116;2022-08-21T18:24:36;7.85;;;3.80;;
68647;SDS011;55632;51.962;16.116;2022-08-21T18:29:38;5.85;;;3.97;;
68647;SDS011;55632;51.962;16.116;2022-08-21T18:34:39;8.93;;;3.63;;
68647;SDS011;55632;51.962;16.116;2022-08-21T18:39:41;5.97;;;3.55;;
68647;SDS011;55632;51.962;16.116;2022-08-21T18:44:43;10.27;;;5.55;;
68647;SDS011;55632;51.962;16.116;2022-08-21T18:49:46;8.20;;;4.45;;
68647;SDS011;55632;51.962;16.116;2022-08-21T18:54:47;6.30;;;3.40;;
68647;SDS011;55632;51.962;16.116;2022-08-21T18:59:51;6.68;;;3.85;;
68647;SDS011;55632;51.962;16.116;2022-08-21T19:04:52;7.93;;;4.43;;
68647;SDS011;55632;51.962;16.116;2022-08-21T19:09:53;6.07;;;4.38;;
68647;SDS011;55632;51.962;16.116;2022-08-21T19:14:54;9.70;;;4.60;;
68647;SDS011;55632;51.962;16.116;2022-08-21T19:19:58;7.25;;;4.30;;
68647;SDS011;55632;51.962;16.116;2022-08-21T19:25:26;5.50;;;4.10;;
68647;SDS011;55632;51.962;16.116;2022-08-21T19:30:27;11.82;;;4.90;;
68647;SDS011;55632;51.962;16.116;2022-08-21T19:35:30;6.45;;;3.97;;
68647;SDS011;55632;51.962;16.116;2022-08-21T19:40:31;7.20;;;3.78;;
68647;SDS011;55632;51.962;16.116;2022-08-21T19:45:36;7.00;;;4.10;;
68647;SDS011;55632;51.962;16.116;2022-08-21T19:50:38;7.15;;;3.83;;
68647;SDS011;55632;51.962;16.116;2022-08-21T19:55:43;7.03;;;3.42;;
68647;SDS011;55632;51.962;16.116;2022-08-21T20:00:45;8.02;;;3.40;;
68647;SDS011;55632;51.962;16.116;2022-08-21T20:05:46;7.13;;;3.25;;
68647;SDS011;55632;51.962;16.116;2022-08-21T20:10:47;8.60;;;3.58;;
68647;SDS011;55632;51.962;16.116;2022-08-21T20:15:51;5.85;;;3.47;;
68647;SDS011;55632;51.962;16.116;2022-08-21T20:20:53;5.05;;;3.00;;
68647;SDS011;55632;51.962;16.116;2022-08-21T20:25:57;6.72;;;3.25;;
68647;SDS011;55632;51.962;16.116;2022-08-21T20:31:01;7.78;;;3.70;;
68647;SDS011;55632;51.962;16.116;2022-08-21T20:36:03;7.28;;;4.97;;
68647;SDS011;55632;51.962;16.116;2022-08-21T20:41:07;5.05;;;3.78;;
68647;SDS011;55632;51.962;16.116;2022-08-21T20:46:08;8.60;;;4.07;;
68647;SDS011;55632;51.962;16.116;2022-08-21T20:51:11;7.18;;;3.83;;
68647;SDS011;55632;51.962;16.116;2022-08-21T20:56:41;5.32;;;3.50;;
68647;SDS011;55632;51.962;16.116;2022-08-21T21:01:46;7.03;;;4.03;;
68647;SDS011;55632;51.962;16.116;2022-08-21T21:06:49;7.75;;;4.18;;
68647;SDS011;55632;51.962;16.116;2022-08-21T21:11:54;11.55;;;4.53;;
68647;SDS011;55632;51.962;16.116;2022-08-21T21:17:01;6.55;;;3.95;;
68647;SDS011;55632;51.962;16.116;2022-08-21T21:27:16;6.40;;;4.15;;
68647;SDS011;55632;51.962;16.116;2022-08-21T21:32:25;8.07;;;4.30;;
68647;SDS011;55632;51.962;16.116;2022-08-21T21:37:51;6.03;;;3.88;;
68647;SDS011;55632;51.962;16.116;2022-08-21T21:48:30;8.60;;;4.40;;
68647;SDS011;55632;51.962;16.116;2022-08-21T22:04:52;8.88;;;4.20;;
68647;SDS011;55632;51.962;16.116;2022-08-21T22:10:06;8.07;;;4.20;;
68647;SDS011;55632;51.962;16.116;2022-08-21T22:15:25;6.03;;;4.80;;
68647;SDS011;55632;51.962;16.116;2022-08-21T22:20:29;5.65;;;3.80;;
68647;SDS011;55632;51.962;16.116;2022-08-21T22:25:39;5.88;;;4.00;;
68647;SDS011;55632;51.962;16.116;2022-08-21T22:30:49;5.72;;;4.13;;
68647;SDS011;55632;51.962;16.116;2022-08-21T22:35:54;5.15;;;3.33;;
68647;SDS011;55632;51.962;16.116;2022-08-21T22:41:08;5.38;;;4.35;;
68647;SDS011;55632;51.962;16.116;2022-08-21T22:46:12;6.82;;;4.95;;
68647;SDS011;55632;51.962;16.116;2022-08-21T22:56:40;6.57;;;4.20;;
68647;SDS011;55632;51.962;16.116;2022-08-21T23:01:45;9.65;;;4.97;;
68647;SDS011;55632;51.962;16.116;2022-08-21T23:06:57;9.18;;;5.30;;
68647;SDS011;55632;51.962;16.116;2022-08-21T23:12:00;10.10;;;5.63;;
68647;SDS011;55632;51.962;16.116;2022-08-21T23:17:08;9.65;;;5.40;;
68647;SDS011;55632;51.962;16.116;2022-08-21T23:22:33;12.68;;;4.97;;
68647;SDS011;55632;51.962;16.116;2022-08-21T23:33:22;9.77;;;4.97;;
68647;SDS011;55632;51.962;16.116;2022-08-21T23:38:43;11.45;;;5.60;;
68647;SDS011;55632;51.962;16.116;2022-08-21T23:43:58;7.93;;;4.88;;
